createdAt,value
2023-04-27T00:00:22.807Z,7.00
2023-04-27T00:05:27.605Z,9.93
2023-04-27T00:10:31.771Z,6.78
2023-04-27T00:15:34.606Z,7.57
2023-04-27T00:20:37.353Z,6.25
2023-04-27T00:25:41.591Z,9.98
2023-04-27T00:30:45.071Z,6.60
2023-04-27T00:35:47.960Z,9.77
2023-04-27T00:40:52.119Z,7.90
2023-04-27T00:45:55.944Z,7.95
2023-04-27T00:50:58.913Z,8.77
2023-04-27T00:56:03.534Z,9.43
2023-04-27T01:01:06.350Z,8.60
2023-04-27T01:06:09.239Z,10.43
2023-04-27T01:11:13.535Z,6.60
2023-04-27T01:16:18.547Z,8.82
2023-04-27T01:21:21.366Z,9.10
2023-04-27T01:26:25.539Z,8.20
2023-04-27T01:31:28.373Z,11.07
2023-04-27T01:36:31.830Z,9.55
2023-04-27T01:41:36.063Z,10.13
2023-04-27T01:46:39.760Z,8.20
2023-04-27T01:51:43.104Z,6.68
2023-04-27T01:56:47.310Z,7.75
2023-04-27T02:01:50.136Z,13.13
2023-04-27T02:06:52.963Z,12.02
2023-04-27T02:11:57.336Z,10.38
2023-04-27T02:17:01.850Z,7.82
2023-04-27T02:22:05.152Z,9.75
2023-04-27T02:27:09.377Z,8.38
2023-04-27T02:32:12.689Z,6.85
2023-04-27T02:37:15.517Z,6.43
2023-04-27T02:42:19.768Z,6.68
2023-04-27T02:47:22.508Z,6.82
2023-04-27T02:52:25.413Z,6.78
2023-04-27T02:57:30.073Z,5.05
2023-04-27T03:02:33.188Z,6.50
2023-04-27T03:07:36.120Z,6.40
2023-04-27T03:12:41.074Z,7.75
2023-04-27T03:17:43.885Z,5.05
2023-04-27T03:22:46.746Z,8.52
2023-04-27T03:27:50.916Z,10.27
2023-04-27T03:32:53.954Z,10.73
2023-04-27T03:37:56.719Z,9.57
2023-04-27T03:43:00.964Z,13.57
2023-04-27T03:48:03.861Z,10.35
2023-04-27T03:53:07.043Z,9.52
2023-04-27T03:58:12.067Z,15.35
2023-04-27T04:03:25.827Z,9.38
2023-04-27T04:08:28.827Z,12.65
2023-04-27T04:13:32.946Z,10.02
2023-04-27T04:18:36.203Z,12.13
2023-04-27T04:23:41.219Z,11.68
2023-04-27T04:28:45.858Z,10.02
2023-04-27T04:33:48.673Z,10.48
2023-04-27T04:38:53.770Z,10.52
2023-04-27T04:43:58.409Z,12.50
2023-04-27T04:49:02.400Z,11.30
2023-04-27T04:54:13.664Z,8.82
2023-04-27T04:59:17.896Z,10.32
2023-04-27T05:04:21.047Z,11.90
2023-04-27T05:09:25.430Z,11.15
2023-04-27T05:14:29.692Z,7.40
2023-04-27T05:19:32.716Z,10.73
2023-04-27T05:24:36.004Z,9.25
2023-04-27T05:29:41.658Z,10.57
2023-04-27T05:34:46.232Z,11.15
2023-04-27T05:39:50.260Z,8.95
2023-04-27T05:44:56.085Z,8.43
2023-04-27T05:49:59.187Z,12.48
2023-04-27T05:55:02.013Z,9.77
2023-04-27T06:00:11.179Z,9.88
2023-04-27T06:05:17.235Z,8.55
2023-04-27T06:10:20.036Z,8.27
2023-04-27T06:15:24.269Z,6.68
2023-04-27T06:20:27.043Z,6.78
2023-04-27T06:25:29.979Z,7.70
2023-04-27T06:30:34.616Z,6.50
2023-04-27T06:35:37.524Z,5.93
2023-04-27T06:40:40.733Z,6.45
2023-04-27T06:45:45.033Z,7.18
2023-04-27T06:50:48.514Z,4.43
2023-04-27T06:56:02.658Z,5.43
2023-04-27T07:01:10.073Z,5.18
2023-04-27T07:06:49.195Z,4.75
2023-04-27T07:11:54.434Z,6.22
2023-04-27T07:17:04.632Z,3.67
2023-04-27T07:22:08.957Z,3.83
2023-04-27T07:27:27.550Z,3.33
2023-04-27T07:32:32.854Z,4.90
2023-04-27T07:37:35.911Z,3.05
2023-04-27T07:42:39.570Z,3.25
2023-04-27T07:47:44.000Z,4.32
2023-04-27T07:52:47.302Z,4.25
2023-04-27T08:04:25.626Z,4.28
2023-04-27T08:09:29.974Z,6.07
2023-04-27T08:14:35.333Z,5.80
2023-04-27T08:19:38.236Z,3.00
2023-04-27T08:24:44.723Z,4.32
2023-04-27T08:29:48.373Z,5.68
2023-04-27T08:34:53.491Z,6.10
2023-04-27T08:39:57.844Z,10.20
2023-04-27T08:45:12.227Z,6.55
2023-04-27T08:50:15.002Z,3.97
2023-04-27T08:55:19.306Z,4.68
2023-04-27T09:00:22.747Z,6.18
2023-04-27T09:05:25.879Z,7.38
2023-04-27T09:10:30.434Z,12.90
2023-04-27T09:15:47.752Z,8.85
2023-04-27T09:20:54.428Z,5.47
2023-04-27T09:26:32.379Z,6.95
2023-04-27T09:32:06.874Z,4.07
2023-04-27T09:37:45.550Z,5.60
2023-04-27T09:42:50.434Z,7.40
2023-04-27T09:47:56.569Z,3.28
2023-04-27T09:52:59.695Z,4.05
2023-04-27T09:58:16.337Z,3.42
2023-04-27T10:03:27.669Z,8.20
2023-04-27T10:08:30.859Z,5.00
2023-04-27T10:13:35.118Z,4.93
2023-04-27T10:18:37.998Z,4.53
2023-04-27T10:23:48.732Z,6.68
2023-04-27T10:29:00.343Z,4.00
2023-04-27T10:34:10.042Z,3.63
2023-04-27T10:39:18.127Z,5.03
2023-04-27T10:45:11.076Z,4.38
2023-04-27T10:50:19.347Z,5.68
2023-04-27T11:15:04.647Z,5.47
2023-04-27T11:20:23.076Z,5.60
2023-04-27T11:25:55.361Z,5.82
2023-04-27T11:30:59.036Z,7.07
2023-04-27T11:36:07.176Z,5.20
2023-04-27T11:41:12.505Z,4.00
2023-04-27T11:46:15.495Z,8.27
2023-04-27T11:51:25.928Z,5.80
2023-04-27T11:56:37.733Z,5.47
2023-04-27T12:15:50.801Z,4.78
2023-04-27T12:20:53.720Z,7.55
2023-04-27T12:25:56.584Z,4.82
2023-04-27T12:31:06.551Z,4.80
2023-04-27T12:36:09.608Z,4.80
2023-04-27T12:41:12.554Z,6.30
2023-04-27T12:46:18.879Z,3.95
2023-04-27T12:58:00.734Z,4.47
2023-04-27T13:03:37.924Z,3.90
2023-04-27T13:08:41.970Z,5.05
2023-04-27T13:14:30.783Z,7.20
2023-04-27T13:20:00.523Z,5.80
2023-04-27T13:25:36.031Z,7.90
2023-04-27T13:36:47.777Z,5.47
2023-04-27T13:41:55.670Z,6.00
2023-04-27T13:47:06.880Z,5.85
2023-04-27T13:52:11.480Z,5.75
2023-04-27T13:57:14.433Z,4.88
2023-04-27T14:02:17.392Z,8.48
2023-04-27T14:07:21.740Z,4.82
2023-04-27T14:19:06.588Z,3.53
2023-04-27T14:31:24.248Z,4.93
2023-04-27T14:36:44.592Z,3.93
2023-04-27T14:42:25.295Z,4.63
2023-04-27T14:54:28.095Z,5.97
2023-04-27T15:00:00.824Z,7.20
2023-04-27T15:10:55.715Z,6.82
2023-04-27T15:16:36.157Z,6.25
2023-04-27T15:21:49.713Z,6.95
2023-04-27T15:27:22.092Z,7.55
2023-04-27T15:32:29.845Z,5.63
2023-04-27T15:37:37.796Z,7.07
2023-04-27T15:43:19.998Z,8.63
2023-04-27T15:48:48.940Z,9.43
2023-04-27T15:54:37.313Z,8.05
2023-04-27T15:59:44.034Z,5.95
2023-04-27T16:04:55.213Z,6.28
2023-04-27T16:11:18.502Z,9.07
2023-04-27T16:16:23.413Z,6.88
2023-04-27T16:21:28.030Z,10.90
2023-04-27T16:26:31.580Z,9.43
2023-04-27T16:31:35.732Z,8.90
2023-04-27T16:36:38.670Z,7.45
2023-04-27T16:41:41.417Z,10.50
2023-04-27T16:46:45.684Z,8.88
2023-04-27T16:51:49.062Z,11.35
2023-04-27T16:56:53.237Z,8.13
2023-04-27T17:02:09.093Z,9.80
2023-04-27T17:07:19.777Z,9.85
2023-04-27T17:12:22.606Z,9.70
2023-04-27T17:17:26.948Z,10.45
2023-04-27T17:22:54.330Z,9.68
2023-04-27T17:28:03.030Z,12.32
2023-04-27T17:33:07.261Z,11.20
2023-04-27T17:38:35.545Z,8.65
2023-04-27T17:44:34.927Z,11.57
2023-04-27T18:17:04.586Z,11.05
2023-04-27T19:13:07.153Z,11.23
2023-04-27T19:18:22.895Z,8.95
2023-04-27T19:23:32.404Z,11.02
2023-04-27T19:28:42.115Z,10.88
2023-04-27T19:51:25.438Z,10.32
2023-04-27T20:01:21.947Z,14.45
2023-04-27T20:06:24.832Z,11.45
2023-04-27T20:11:27.994Z,10.07
2023-04-27T20:16:32.240Z,10.80
2023-04-27T20:21:35.055Z,11.30
2023-04-27T20:26:37.867Z,15.00
2023-04-27T20:31:42.394Z,14.90
2023-04-27T20:36:45.463Z,9.18
2023-04-27T20:41:49.133Z,9.82
2023-04-27T20:46:53.429Z,9.27
2023-04-27T20:51:56.246Z,7.95
2023-04-27T20:57:02.103Z,10.48
2023-04-27T21:02:07.621Z,12.80
2023-04-27T21:07:10.516Z,15.00
2023-04-27T21:12:14.684Z,13.80
2023-04-27T21:17:18.744Z,14.45
2023-04-27T21:22:21.593Z,10.45
2023-04-27T21:27:33.456Z,11.45
2023-04-27T21:32:40.711Z,14.57
2023-04-27T21:37:43.631Z,11.50
2023-04-27T21:42:46.475Z,8.40
2023-04-27T21:47:50.820Z,10.27
2023-04-27T21:52:59.751Z,17.40
2023-04-27T21:58:04.625Z,8.02
2023-04-27T22:03:09.080Z,11.35
2023-04-27T22:08:12.173Z,12.95
2023-04-27T22:13:18.756Z,13.20
2023-04-27T22:18:23.811Z,13.80
2023-04-27T22:23:26.784Z,12.48
2023-04-27T22:28:29.706Z,12.55
2023-04-27T22:33:34.423Z,18.27
2023-04-27T22:38:37.224Z,10.60
2023-04-27T22:43:39.973Z,11.07
2023-04-27T22:48:45.037Z,9.88
2023-04-27T22:53:47.893Z,10.50
2023-04-27T22:58:51.640Z,11.38
2023-04-27T23:03:56.192Z,10.73
2023-04-27T23:08:59.122Z,11.70
2023-04-27T23:14:02.354Z,10.57
2023-04-27T23:19:06.493Z,11.30
2023-04-27T23:24:09.708Z,11.82
2023-04-27T23:29:12.660Z,12.02
2023-04-27T23:34:17.453Z,14.52
2023-04-27T23:39:20.603Z,14.90
2023-04-27T23:44:23.456Z,13.82
2023-04-27T23:49:27.633Z,13.80
2023-04-27T23:54:31.477Z,16.17
2023-04-27T23:59:35.322Z,15.18
